createdAt,value
2022-10-20T00:00:26.740Z,1003.93
2022-10-20T00:01:26.776Z,1003.92
2022-10-20T00:02:26.934Z,1003.90
2022-10-20T00:03:26.839Z,1003.90
2022-10-20T00:04:26.875Z,1003.91
2022-10-20T00:05:26.903Z,1003.92
2022-10-20T00:06:26.938Z,1003.90
2022-10-20T00:07:26.969Z,1003.91
2022-10-20T00:08:27.049Z,1003.92
2022-10-20T00:09:27.035Z,1003.92
2022-10-20T00:10:27.069Z,1003.94
2022-10-20T00:11:27.104Z,1003.96
2022-10-20T00:12:27.137Z,1003.97
2022-10-20T00:13:27.168Z,1003.96
2022-10-20T00:14:27.206Z,1003.93
2022-10-20T00:15:27.234Z,1003.93
2022-10-20T00:16:27.268Z,1003.97
2022-10-20T00:17:27.299Z,1003.94
2022-10-20T00:18:27.358Z,1003.89
2022-10-20T00:19:27.366Z,1003.93
2022-10-20T00:20:27.404Z,1003.93
2022-10-20T00:21:27.433Z,1003.95
2022-10-20T00:22:27.466Z,1003.91
2022-10-20T00:23:27.497Z,1003.92
2022-10-20T00:24:27.532Z,1003.93
2022-10-20T00:25:27.567Z,1003.91
2022-10-20T00:26:27.599Z,1003.90
2022-10-20T00:27:27.631Z,1003.88
2022-10-20T00:28:27.664Z,1003.90
2022-10-20T00:29:27.703Z,1003.88
2022-10-20T00:30:27.734Z,1003.88
2022-10-20T00:31:27.765Z,1003.90
2022-10-20T00:32:27.797Z,1003.91
2022-10-20T00:33:27.829Z,1003.92
2022-10-20T00:34:28.167Z,1003.93
2022-10-20T00:35:27.899Z,1003.95
2022-10-20T00:36:27.930Z,1003.99
2022-10-20T00:37:27.962Z,1003.98
2022-10-20T00:38:27.995Z,1004.00
2022-10-20T00:39:28.028Z,1004.03
2022-10-20T00:40:28.062Z,1004.05
2022-10-20T00:41:28.093Z,1004.02
2022-10-20T00:42:28.127Z,1004.06
2022-10-20T00:43:28.162Z,1004.04
2022-10-20T00:44:28.193Z,1004.03
2022-10-20T00:45:28.227Z,1004.03
2022-10-20T00:46:28.263Z,1004.01
2022-10-20T00:47:28.293Z,1004.02
2022-10-20T00:48:28.325Z,1004.03
2022-10-20T00:49:28.358Z,1004.03
2022-10-20T00:50:28.416Z,1004.02
2022-10-20T00:51:28.425Z,1004.03
2022-10-20T00:52:28.459Z,1004.00
2022-10-20T00:53:28.490Z,1004.00
2022-10-20T00:54:28.523Z,1003.99
2022-10-20T00:55:28.556Z,1003.98
2022-10-20T00:56:28.590Z,1003.98
2022-10-20T00:57:28.623Z,1003.97
2022-10-20T00:58:28.660Z,1003.97
2022-10-20T00:59:28.693Z,1003.96
2022-10-20T01:00:28.723Z,1003.97
2022-10-20T01:01:28.780Z,1003.98
2022-10-20T01:02:28.788Z,1003.96
2022-10-20T01:03:28.821Z,1003.95
2022-10-20T01:04:28.855Z,1003.99
2022-10-20T01:05:28.887Z,1003.97
2022-10-20T01:06:28.962Z,1003.99
2022-10-20T01:07:28.955Z,1004.00
2022-10-20T01:08:29.058Z,1003.93
2022-10-20T01:09:29.019Z,1003.97
2022-10-20T01:10:29.053Z,1003.95
2022-10-20T01:11:29.089Z,1003.97
2022-10-20T01:12:29.120Z,1003.96
2022-10-20T01:13:29.151Z,1003.98
2022-10-20T01:14:29.186Z,1004.00
2022-10-20T01:15:29.236Z,1004.02
2022-10-20T01:16:29.252Z,1004.01
2022-10-20T01:17:29.287Z,1004.03
2022-10-20T01:18:29.318Z,1004.06
2022-10-20T01:19:29.350Z,1004.05
2022-10-20T01:20:29.384Z,1004.12
2022-10-20T01:21:29.417Z,1004.15
2022-10-20T01:22:29.474Z,1004.12
2022-10-20T01:23:29.483Z,1004.10
2022-10-20T01:24:29.532Z,1004.14
2022-10-20T01:25:29.551Z,1004.14
2022-10-20T01:26:29.583Z,1004.15
2022-10-20T01:27:29.615Z,1004.16
2022-10-20T01:28:29.650Z,1004.19
2022-10-20T01:29:29.682Z,1004.13
2022-10-20T01:30:29.719Z,1004.13
2022-10-20T01:31:29.761Z,1004.12
2022-10-20T01:32:29.784Z,1004.11
2022-10-20T01:33:29.817Z,1004.11
2022-10-20T01:34:29.848Z,1004.12
2022-10-20T01:35:29.880Z,1004.10
2022-10-20T01:36:29.913Z,1004.05
2022-10-20T01:37:47.563Z,1004.06
2022-10-20T01:38:30.004Z,1004.05
2022-10-20T01:39:30.012Z,1004.04
2022-10-20T01:40:30.045Z,1004.02
2022-10-20T01:41:30.078Z,1004.04
2022-10-20T01:42:30.173Z,1004.05
2022-10-20T01:43:30.145Z,1004.05
2022-10-20T01:44:30.180Z,1004.08
2022-10-20T01:45:30.217Z,1004.09
2022-10-20T01:46:30.246Z,1004.09
2022-10-20T01:47:30.279Z,1004.09
2022-10-20T01:48:30.313Z,1004.10
2022-10-20T01:49:30.347Z,1004.11
2022-10-20T01:50:30.376Z,1004.10
2022-10-20T01:51:30.484Z,1004.11
2022-10-20T01:52:30.446Z,1004.10
2022-10-20T01:53:30.475Z,1004.09
2022-10-20T01:54:30.535Z,1004.10
2022-10-20T01:55:30.541Z,1004.10
2022-10-20T01:56:30.576Z,1004.07
2022-10-20T01:57:30.607Z,1004.10
2022-10-20T01:58:30.658Z,1004.06
2022-10-20T01:59:30.676Z,1004.02
2022-10-20T02:00:30.708Z,1004.03
2022-10-20T02:01:30.769Z,1004.02
2022-10-20T02:02:30.774Z,1004.03
2022-10-20T02:03:30.807Z,1004.03
2022-10-20T02:04:30.842Z,1004.00
2022-10-20T02:05:30.872Z,1004.04
2022-10-20T02:06:30.905Z,1004.05
2022-10-20T02:07:30.940Z,1004.06
2022-10-20T02:08:31.052Z,1004.05
2022-10-20T02:09:31.005Z,1004.07
2022-10-20T02:10:31.063Z,1004.09
2022-10-20T02:11:31.071Z,1004.13
2022-10-20T02:12:31.104Z,1004.11
2022-10-20T02:13:31.137Z,1004.13
2022-10-20T02:14:31.171Z,1004.13
2022-10-20T02:15:31.203Z,1004.13
2022-10-20T02:16:31.236Z,1004.14
2022-10-20T02:17:31.269Z,1004.13
2022-10-20T02:18:31.304Z,1004.16
2022-10-20T02:19:31.336Z,1004.16
2022-10-20T02:20:31.378Z,1004.17
2022-10-20T02:21:31.402Z,1004.13
2022-10-20T02:22:31.436Z,1004.12
2022-10-20T02:23:35.063Z,1004.12
2022-10-20T02:24:31.503Z,1004.11
2022-10-20T02:25:31.536Z,1004.09
2022-10-20T02:26:31.594Z,1004.11
2022-10-20T02:27:31.602Z,1004.11
2022-10-20T02:28:31.635Z,1004.10
2022-10-20T02:29:31.669Z,1004.09
2022-10-20T02:30:31.699Z,1004.10
2022-10-20T02:31:31.734Z,1004.08
2022-10-20T02:32:31.774Z,1004.09
2022-10-20T02:33:31.799Z,1004.07
2022-10-20T02:34:31.832Z,1004.06
2022-10-20T02:35:31.870Z,1004.05
2022-10-20T02:36:31.900Z,1004.08
2022-10-20T02:37:31.932Z,1004.05
2022-10-20T02:38:31.967Z,1004.06
2022-10-20T02:39:31.999Z,1004.05
2022-10-20T02:40:32.045Z,1004.07
2022-10-20T02:41:32.065Z,1004.08
2022-10-20T02:42:32.123Z,1004.08
2022-10-20T02:43:32.133Z,1004.09
2022-10-20T02:44:32.165Z,1004.09
2022-10-20T02:45:32.199Z,1004.06
2022-10-20T02:46:32.229Z,1004.07
2022-10-20T02:47:32.264Z,1004.07
2022-10-20T02:48:32.296Z,1004.12
2022-10-20T02:49:32.329Z,1004.05
2022-10-20T02:50:32.362Z,1004.07
2022-10-20T02:51:32.395Z,1004.07
2022-10-20T02:52:32.429Z,1004.10
2022-10-20T02:53:32.462Z,1004.10
2022-10-20T02:54:32.494Z,1004.10
2022-10-20T02:55:32.534Z,1004.10
2022-10-20T02:56:32.561Z,1004.11
2022-10-20T02:57:32.658Z,1004.10
2022-10-20T02:58:32.653Z,1004.13
2022-10-20T02:59:32.661Z,1004.15
2022-10-20T03:00:32.694Z,1004.15
2022-10-20T03:01:32.750Z,1004.17
2022-10-20T03:02:32.759Z,1004.20
2022-10-20T03:03:32.792Z,1004.23
2022-10-20T03:04:32.834Z,1004.21
2022-10-20T03:05:32.860Z,1004.24
2022-10-20T03:06:32.893Z,1004.19
2022-10-20T03:07:33.100Z,1004.19
2022-10-20T03:08:33.004Z,1004.13
2022-10-20T03:09:32.994Z,1004.12
2022-10-20T03:10:33.024Z,1004.15
2022-10-20T03:11:33.057Z,1004.15
2022-10-20T03:12:33.091Z,1004.16
2022-10-20T03:13:33.129Z,1004.16
2022-10-20T03:14:33.183Z,1004.19
2022-10-20T03:15:33.190Z,1004.15
2022-10-20T03:16:33.224Z,1004.17
2022-10-20T03:17:33.429Z,1004.17
2022-10-20T03:18:33.289Z,1004.18
2022-10-20T03:19:33.324Z,1004.18
2022-10-20T03:20:33.355Z,1004.18
2022-10-20T03:21:33.390Z,1004.19
2022-10-20T03:22:33.429Z,1004.21
2022-10-20T03:23:33.455Z,1004.18
2022-10-20T03:24:33.489Z,1004.20
2022-10-20T03:25:33.521Z,1004.23
2022-10-20T03:26:33.556Z,1004.24
2022-10-20T03:27:33.902Z,1004.25
2022-10-20T03:28:33.619Z,1004.30
2022-10-20T03:29:33.653Z,1004.27
2022-10-20T03:30:33.711Z,1004.30
2022-10-20T03:31:33.720Z,1004.22
2022-10-20T03:32:34.158Z,1004.21
2022-10-20T03:33:33.786Z,1004.20
2022-10-20T03:34:33.818Z,1004.21
2022-10-20T03:35:33.861Z,1004.22
2022-10-20T03:36:33.884Z,1004.21
2022-10-20T03:37:33.918Z,1004.23
2022-10-20T03:38:33.951Z,1004.24
2022-10-20T03:39:33.985Z,1004.26
2022-10-20T03:40:34.019Z,1004.27
2022-10-20T03:41:34.050Z,1004.30
2022-10-20T03:42:34.540Z,1004.34
2022-10-20T03:43:34.116Z,1004.33
2022-10-20T03:44:34.152Z,1004.37
2022-10-20T03:45:34.182Z,1004.36
2022-10-20T03:46:34.241Z,1004.38
2022-10-20T03:47:34.258Z,1004.40
2022-10-20T03:48:34.283Z,1004.36
2022-10-20T03:49:34.315Z,1004.40
2022-10-20T03:50:34.349Z,1004.41
2022-10-20T03:51:34.382Z,1004.43
2022-10-20T03:52:34.855Z,1004.44
2022-10-20T03:53:34.448Z,1004.44
2022-10-20T03:54:34.481Z,1004.41
2022-10-20T03:55:34.516Z,1004.41
2022-10-20T03:56:34.550Z,1004.44
2022-10-20T03:57:34.859Z,1004.40
2022-10-20T03:58:34.613Z,1004.40
2022-10-20T03:59:34.647Z,1004.36
2022-10-20T04:00:34.691Z,1004.37
2022-10-20T04:01:34.823Z,1004.40
2022-10-20T04:02:35.169Z,1004.40
2022-10-20T04:03:34.782Z,1004.38
2022-10-20T04:04:34.812Z,1004.40
2022-10-20T04:05:34.844Z,1004.38
2022-10-20T04:06:34.878Z,1004.46
2022-10-20T04:07:34.912Z,1004.44
2022-10-20T04:08:35.015Z,1004.49
2022-10-20T04:09:34.977Z,1004.46
2022-10-20T04:10:35.011Z,1004.49
2022-10-20T04:11:35.045Z,1004.44
2022-10-20T04:12:35.383Z,1004.47
2022-10-20T04:13:35.111Z,1004.42
2022-10-20T04:14:35.145Z,1004.42
2022-10-20T04:15:35.177Z,1004.43
2022-10-20T04:16:35.210Z,1004.45
2022-10-20T04:17:35.316Z,1004.40
2022-10-20T04:18:35.376Z,1004.46
2022-10-20T04:19:35.308Z,1004.47
2022-10-20T04:20:37.357Z,1004.50
2022-10-20T04:21:35.376Z,1004.49
2022-10-20T04:22:35.716Z,1004.47
2022-10-20T04:23:35.443Z,1004.45
2022-10-20T04:24:35.475Z,1004.44
2022-10-20T04:25:35.508Z,1004.48
2022-10-20T04:26:35.542Z,1004.46
2022-10-20T04:27:35.974Z,1004.45
2022-10-20T04:28:35.608Z,1004.44
2022-10-20T04:29:35.639Z,1004.46
2022-10-20T04:30:35.673Z,1004.46
2022-10-20T04:31:35.706Z,1004.44
2022-10-20T04:32:35.741Z,1004.42
2022-10-20T04:33:35.773Z,1004.45
2022-10-20T04:34:35.829Z,1004.44
2022-10-20T04:35:35.915Z,1004.43
2022-10-20T04:36:35.872Z,1004.46
2022-10-20T04:37:36.182Z,1004.41
2022-10-20T04:38:35.939Z,1004.38
2022-10-20T04:39:35.971Z,1004.41
2022-10-20T04:40:36.004Z,1004.44
2022-10-20T04:41:36.037Z,1004.43
2022-10-20T04:42:36.070Z,1004.43
2022-10-20T04:43:36.104Z,1004.43
2022-10-20T04:44:36.137Z,1004.44
2022-10-20T04:45:36.170Z,1004.41
2022-10-20T04:46:36.209Z,1004.40
2022-10-20T04:47:36.471Z,1004.45
2022-10-20T04:48:36.269Z,1004.44
2022-10-20T04:49:36.302Z,1004.46
2022-10-20T04:50:36.360Z,1004.50
2022-10-20T04:51:36.368Z,1004.50
2022-10-20T04:52:36.402Z,1004.48
2022-10-20T04:53:36.436Z,1004.54
2022-10-20T04:54:36.468Z,1004.52
2022-10-20T04:55:36.501Z,1004.50
2022-10-20T04:56:36.535Z,1004.47
2022-10-20T04:57:36.925Z,1004.48
2022-10-20T04:58:36.601Z,1004.48
2022-10-20T04:59:36.636Z,1004.54
2022-10-20T05:00:36.669Z,1004.50
2022-10-20T05:01:36.775Z,1004.57
2022-10-20T05:02:36.736Z,1004.59
2022-10-20T05:03:36.767Z,1004.63
2022-10-20T05:04:36.800Z,1004.61
2022-10-20T05:05:36.832Z,1004.61
2022-10-20T05:06:36.890Z,1004.65
2022-10-20T05:07:37.186Z,1004.65
2022-10-20T05:08:37.062Z,1004.66
2022-10-20T05:09:36.966Z,1004.62
2022-10-20T05:10:36.998Z,1004.66
2022-10-20T05:11:37.035Z,1004.68
2022-10-20T05:12:37.346Z,1004.70
2022-10-20T05:13:37.101Z,1004.71
2022-10-20T05:14:37.131Z,1004.74
2022-10-20T05:15:37.164Z,1004.77
2022-10-20T05:16:37.198Z,1004.74
2022-10-20T05:17:37.230Z,1004.72
2022-10-20T05:18:37.266Z,1004.72
2022-10-20T05:19:37.304Z,1004.68
2022-10-20T05:20:45.936Z,1004.74
2022-10-20T05:21:37.408Z,1004.67
2022-10-20T05:22:37.825Z,1004.70
2022-10-20T05:23:37.429Z,1004.75
2022-10-20T05:24:37.464Z,1004.74
2022-10-20T05:25:37.497Z,1004.76
2022-10-20T05:26:37.535Z,1004.77
2022-10-20T05:27:37.563Z,1004.78
2022-10-20T05:28:37.596Z,1004.81
2022-10-20T05:29:37.628Z,1004.80
2022-10-20T05:30:37.768Z,1004.82
2022-10-20T05:32:38.051Z,1004.85
2022-10-20T05:33:37.763Z,1004.81
2022-10-20T05:34:37.795Z,1004.85
2022-10-20T05:35:37.831Z,1004.89
2022-10-20T05:36:37.862Z,1004.86
2022-10-20T05:37:37.895Z,1004.90
2022-10-20T05:38:37.957Z,1004.82
2022-10-20T05:39:38.065Z,1004.88
2022-10-20T05:40:37.997Z,1004.91
2022-10-20T05:41:39.047Z,1004.96
2022-10-20T05:42:38.487Z,1004.91
2022-10-20T05:43:38.094Z,1005.00
2022-10-20T05:44:38.129Z,1004.93
2022-10-20T05:45:38.160Z,1004.94
2022-10-20T05:46:38.199Z,1004.98
2022-10-20T05:47:38.230Z,1004.99
2022-10-20T05:48:42.799Z,1005.00
2022-10-20T05:49:38.293Z,1005.03
2022-10-20T05:50:38.373Z,1005.05
2022-10-20T05:51:38.360Z,1005.10
2022-10-20T05:52:38.637Z,1005.07
2022-10-20T05:53:38.428Z,1005.06
2022-10-20T05:54:38.485Z,1005.04
2022-10-20T05:55:38.494Z,1005.07
2022-10-20T05:56:38.526Z,1005.05
2022-10-20T05:57:38.560Z,1005.08
2022-10-20T05:58:38.599Z,1005.11
2022-10-20T05:59:38.627Z,1005.13
2022-10-20T06:00:38.662Z,1005.15
2022-10-20T06:01:38.701Z,1005.12
2022-10-20T06:02:39.000Z,1005.10
2022-10-20T06:03:38.760Z,1005.14
2022-10-20T06:04:38.794Z,1005.13
2022-10-20T06:05:38.828Z,1005.11
2022-10-20T06:06:38.860Z,1005.10
2022-10-20T06:07:38.895Z,1005.14
2022-10-20T06:08:38.945Z,1005.14
2022-10-20T06:09:38.963Z,1005.14
2022-10-20T06:10:39.018Z,1005.17
2022-10-20T06:11:39.625Z,1005.17
2022-10-20T06:12:39.324Z,1005.16
2022-10-20T06:13:39.093Z,1005.21
2022-10-20T06:14:39.127Z,1005.17
2022-10-20T06:15:39.162Z,1005.18
2022-10-20T06:16:39.194Z,1005.21
2022-10-20T06:17:39.228Z,1005.19
2022-10-20T06:18:39.260Z,1005.22
2022-10-20T06:19:39.293Z,1005.21
2022-10-20T06:20:39.328Z,1005.21
2022-10-20T06:21:39.484Z,1005.21
2022-10-20T06:22:39.798Z,1005.19
2022-10-20T06:23:39.426Z,1005.21
2022-10-20T06:24:39.461Z,1005.22
2022-10-20T06:25:39.495Z,1005.25
2022-10-20T06:26:39.561Z,1005.26
2022-10-20T06:27:39.560Z,1005.28
2022-10-20T06:28:39.594Z,1005.29
2022-10-20T06:29:39.627Z,1005.28
2022-10-20T06:30:39.662Z,1005.29
2022-10-20T06:31:39.693Z,1005.30
2022-10-20T06:32:39.807Z,1005.32
2022-10-20T06:33:39.763Z,1005.32
2022-10-20T06:34:39.795Z,1005.36
2022-10-20T06:35:39.831Z,1005.37
2022-10-20T06:36:39.861Z,1005.37
2022-10-20T06:37:39.896Z,1005.34
2022-10-20T06:38:39.927Z,1005.34
2022-10-20T06:39:39.962Z,1005.38
2022-10-20T06:40:39.995Z,1005.35
2022-10-20T06:41:40.026Z,1005.38
2022-10-20T06:42:40.086Z,1005.36
2022-10-20T06:43:40.097Z,1005.40
2022-10-20T06:44:40.129Z,1005.38
2022-10-20T06:45:40.162Z,1005.40
2022-10-20T06:46:40.195Z,1005.41
2022-10-20T06:47:40.487Z,1005.46
2022-10-20T06:48:40.285Z,1005.46
2022-10-20T06:49:40.309Z,1005.43
2022-10-20T06:50:40.329Z,1005.49
2022-10-20T06:51:40.363Z,1005.51
2022-10-20T06:52:40.397Z,1005.50
2022-10-20T06:53:42.739Z,1005.51
2022-10-20T06:54:40.463Z,1005.50
2022-10-20T06:55:40.497Z,1005.50
2022-10-20T06:56:40.530Z,1005.47
2022-10-20T06:57:40.562Z,1005.50
2022-10-20T06:58:40.623Z,1005.52
2022-10-20T06:59:40.630Z,1005.54
2022-10-20T07:00:40.664Z,1005.54
2022-10-20T07:01:40.787Z,1005.54
2022-10-20T07:02:40.730Z,1005.57
2022-10-20T07:03:40.765Z,1005.57
2022-10-20T07:04:40.798Z,1005.59
2022-10-20T07:05:40.835Z,1005.58
2022-10-20T07:06:40.864Z,1005.57
2022-10-20T07:07:41.126Z,1005.55
2022-10-20T07:08:41.019Z,1005.58
2022-10-20T07:09:40.969Z,1005.56
2022-10-20T07:10:40.998Z,1005.63
2022-10-20T07:11:41.034Z,1005.62
2022-10-20T07:12:41.066Z,1005.68
2022-10-20T07:13:41.099Z,1005.65
2022-10-20T07:14:41.158Z,1005.65
2022-10-20T07:15:41.167Z,1005.58
2022-10-20T07:16:41.202Z,1005.62
2022-10-20T07:17:41.234Z,1005.63
2022-10-20T07:18:41.362Z,1005.61
2022-10-20T07:19:41.304Z,1005.64
2022-10-20T07:20:41.334Z,1005.66
2022-10-20T07:21:45.350Z,1005.65
2022-10-20T07:22:41.400Z,1005.67
2022-10-20T07:23:41.435Z,1005.70
2022-10-20T07:24:41.468Z,1005.66
2022-10-20T07:25:41.503Z,1005.66
2022-10-20T07:26:41.540Z,1005.73
2022-10-20T07:27:41.568Z,1005.73
2022-10-20T07:28:41.602Z,1005.78
2022-10-20T07:29:41.637Z,1005.74
2022-10-20T07:30:41.694Z,1005.78
2022-10-20T07:31:41.702Z,1005.78
2022-10-20T07:32:41.738Z,1005.79
2022-10-20T07:33:41.784Z,1005.80
2022-10-20T07:34:41.803Z,1005.81
2022-10-20T07:35:41.837Z,1005.83
2022-10-20T07:36:41.870Z,1005.87
2022-10-20T07:37:41.905Z,1005.86
2022-10-20T07:38:41.940Z,1005.88
2022-10-20T07:39:41.973Z,1005.94
2022-10-20T07:40:42.007Z,1005.95
2022-10-20T07:41:42.038Z,1005.98
2022-10-20T07:42:42.071Z,1006.01
2022-10-20T07:43:42.107Z,1005.99
2022-10-20T07:44:42.142Z,1006.03
2022-10-20T07:45:42.173Z,1006.04
2022-10-20T07:46:42.234Z,1006.01
2022-10-20T07:47:45.391Z,1006.03
2022-10-20T07:48:42.277Z,1006.05
2022-10-20T07:49:44.643Z,1006.02
2022-10-20T07:50:42.342Z,1006.05
2022-10-20T07:51:42.374Z,1006.07
2022-10-20T07:52:42.408Z,1006.02
2022-10-20T07:53:42.441Z,1006.06
2022-10-20T07:54:42.477Z,1006.09
2022-10-20T07:55:42.510Z,1006.10
2022-10-20T07:56:42.544Z,1006.09
2022-10-20T07:57:42.576Z,1006.10
2022-10-20T07:58:42.612Z,1006.09
2022-10-20T07:59:42.644Z,1006.05
2022-10-20T08:00:42.733Z,1006.11
2022-10-20T08:01:42.831Z,1006.10
2022-10-20T08:02:42.770Z,1006.15
2022-10-20T08:03:42.779Z,1006.14
2022-10-20T08:04:42.813Z,1006.17
2022-10-20T08:05:42.846Z,1006.16
2022-10-20T08:06:42.882Z,1006.18
2022-10-20T08:07:42.912Z,1006.18
2022-10-20T08:08:42.964Z,1006.17
2022-10-20T08:09:42.978Z,1006.12
2022-10-20T08:10:43.015Z,1006.10
2022-10-20T08:11:43.049Z,1006.06
2022-10-20T08:12:43.082Z,1006.09
2022-10-20T08:13:43.114Z,1006.15
2022-10-20T08:14:43.150Z,1006.22
2022-10-20T08:16:43.224Z,1006.28
2022-10-20T08:17:43.254Z,1006.27
2022-10-20T08:19:55.924Z,1006.26
2022-10-20T08:20:43.350Z,1006.26
2022-10-20T08:21:43.385Z,1006.26
2022-10-20T08:22:43.417Z,1006.26
2022-10-20T08:23:43.451Z,1006.31
2022-10-20T08:24:43.485Z,1006.30
2022-10-20T08:25:43.518Z,1006.22
2022-10-20T08:26:43.553Z,1006.26
2022-10-20T08:27:43.587Z,1006.26
2022-10-20T08:28:43.621Z,1006.24
2022-10-20T08:29:50.781Z,1006.22
2022-10-20T08:30:43.688Z,1006.18
2022-10-20T08:31:43.721Z,1006.23
2022-10-20T08:32:43.755Z,1006.24
2022-10-20T08:33:43.790Z,1006.22
2022-10-20T08:34:43.822Z,1006.23
2022-10-20T08:35:43.881Z,1006.26
2022-10-20T08:36:43.890Z,1006.28
2022-10-20T08:37:43.924Z,1006.25
2022-10-20T08:38:43.958Z,1006.24
2022-10-20T08:39:43.992Z,1006.24
2022-10-20T08:40:44.025Z,1006.28
2022-10-20T08:42:06.425Z,1006.30
2022-10-20T08:42:44.099Z,1006.27
2022-10-20T08:43:44.128Z,1006.32
2022-10-20T08:44:44.237Z,1006.29
2022-10-20T08:45:44.192Z,1006.32
2022-10-20T08:46:44.234Z,1006.35
2022-10-20T08:47:44.262Z,1006.30
2022-10-20T08:48:44.297Z,1006.29
2022-10-20T08:49:44.327Z,1006.30
2022-10-20T08:50:44.361Z,1006.27
2022-10-20T08:51:44.420Z,1006.28
2022-10-20T08:52:44.429Z,1006.28
2022-10-20T08:53:44.463Z,1006.30
2022-10-20T08:54:44.655Z,1006.30
2022-10-20T08:55:44.531Z,1006.32
2022-10-20T08:56:44.569Z,1006.32
2022-10-20T08:57:44.599Z,1006.36
2022-10-20T08:58:44.632Z,1006.34
2022-10-20T08:59:44.666Z,1006.36
2022-10-20T09:00:44.704Z,1006.35
2022-10-20T09:01:44.778Z,1006.32
2022-10-20T09:02:44.769Z,1006.33
2022-10-20T09:03:44.826Z,1006.35
2022-10-20T09:04:44.844Z,1006.36
2022-10-20T09:05:44.867Z,1006.38
2022-10-20T09:06:44.911Z,1006.42
2022-10-20T09:07:44.978Z,1006.38
2022-10-20T09:08:45.035Z,1006.44
2022-10-20T09:09:45.002Z,1006.40
2022-10-20T09:10:45.036Z,1006.37
2022-10-20T09:11:45.071Z,1006.37
2022-10-20T09:12:45.105Z,1006.36
2022-10-20T09:13:45.212Z,1006.33
2022-10-20T09:14:45.171Z,1006.28
2022-10-20T09:15:45.206Z,1006.31
2022-10-20T09:16:59.383Z,1006.33
2022-10-20T09:17:45.274Z,1006.32
2022-10-20T09:18:45.307Z,1006.38
2022-10-20T09:19:45.342Z,1006.37
2022-10-20T09:20:45.376Z,1006.42
2022-10-20T09:21:45.409Z,1006.39
2022-10-20T09:22:45.446Z,1006.40
2022-10-20T09:23:45.621Z,1006.39
2022-10-20T09:24:45.512Z,1006.42
2022-10-20T09:25:45.545Z,1006.39
2022-10-20T09:26:58.054Z,1006.42
2022-10-20T09:27:45.612Z,1006.39
2022-10-20T09:29:08.612Z,1006.48
2022-10-20T09:29:45.679Z,1006.45
2022-10-20T09:30:45.719Z,1006.47
2022-10-20T09:31:45.749Z,1006.45
2022-10-20T09:32:47.363Z,1006.45
2022-10-20T09:33:45.815Z,1006.42
2022-10-20T09:34:45.850Z,1006.42
2022-10-20T09:35:45.882Z,1006.41
2022-10-20T09:36:45.918Z,1006.44
2022-10-20T09:37:45.950Z,1006.49
2022-10-20T09:38:45.985Z,1006.51
2022-10-20T09:39:46.042Z,1006.51
2022-10-20T09:40:46.052Z,1006.49
2022-10-20T09:41:46.085Z,1006.48
2022-10-20T09:42:46.119Z,1006.41
2022-10-20T09:43:46.155Z,1006.45
2022-10-20T09:44:46.187Z,1006.42
2022-10-20T09:45:46.220Z,1006.40
2022-10-20T09:46:46.256Z,1006.43
2022-10-20T09:47:46.292Z,1006.45
2022-10-20T09:48:46.324Z,1006.44
2022-10-20T09:49:46.364Z,1006.52
2022-10-20T09:50:46.391Z,1006.51
2022-10-20T09:51:46.479Z,1006.53
2022-10-20T09:52:46.458Z,1006.55
2022-10-20T09:53:46.492Z,1006.52
2022-10-20T09:54:46.527Z,1006.50
2022-10-20T09:55:46.584Z,1006.50
2022-10-20T09:56:46.594Z,1006.52
2022-10-20T09:57:46.626Z,1006.48
2022-10-20T09:58:46.661Z,1006.48
2022-10-20T09:59:46.699Z,1006.48
2022-10-20T10:00:46.819Z,1006.45
2022-10-20T10:01:46.762Z,1006.44
2022-10-20T10:02:46.796Z,1006.45
2022-10-20T10:03:46.830Z,1006.46
2022-10-20T10:04:46.863Z,1006.48
2022-10-20T10:05:46.901Z,1006.46
2022-10-20T10:06:46.930Z,1006.48
2022-10-20T10:07:46.965Z,1006.44
2022-10-20T10:08:47.055Z,1006.42
2022-10-20T10:09:47.032Z,1006.41
2022-10-20T10:10:47.066Z,1006.40
2022-10-20T10:11:47.133Z,1006.43
2022-10-20T10:12:47.133Z,1006.43
2022-10-20T10:13:47.167Z,1006.44
2022-10-20T10:14:47.200Z,1006.43
2022-10-20T10:15:47.234Z,1006.42
2022-10-20T10:16:47.269Z,1006.44
2022-10-20T10:17:47.305Z,1006.44
2022-10-20T10:18:49.224Z,1006.42
2022-10-20T10:19:47.750Z,1006.47
2022-10-20T10:20:47.404Z,1006.45
2022-10-20T10:21:47.436Z,1006.44
2022-10-20T10:22:47.471Z,1006.49
2022-10-20T10:23:47.506Z,1006.47
2022-10-20T10:24:47.539Z,1006.43
2022-10-20T10:25:47.576Z,1006.46
2022-10-20T10:26:47.604Z,1006.47
2022-10-20T10:27:47.664Z,1006.45
2022-10-20T10:28:47.672Z,1006.43
2022-10-20T10:29:47.704Z,1006.40
2022-10-20T10:30:50.063Z,1006.45
2022-10-20T10:31:47.774Z,1006.47
2022-10-20T10:32:47.807Z,1006.51
2022-10-20T10:33:47.840Z,1006.44
2022-10-20T10:34:47.875Z,1006.46
2022-10-20T10:35:47.908Z,1006.42
2022-10-20T10:36:47.941Z,1006.36
2022-10-20T10:37:47.976Z,1006.35
2022-10-20T10:38:48.008Z,1006.39
2022-10-20T10:39:48.043Z,1006.30
2022-10-20T10:40:48.077Z,1006.37
2022-10-20T10:41:48.189Z,1006.39
2022-10-20T10:42:48.143Z,1006.37
2022-10-20T10:43:48.876Z,1006.37
2022-10-20T10:44:48.214Z,1006.43
2022-10-20T10:45:48.243Z,1006.43
2022-10-20T10:46:48.280Z,1006.50
2022-10-20T10:47:48.311Z,1006.50
2022-10-20T10:48:48.346Z,1006.52
2022-10-20T10:49:48.382Z,1006.51
2022-10-20T10:50:48.411Z,1006.54
2022-10-20T10:51:48.446Z,1006.50
2022-10-20T10:52:48.483Z,1006.51
2022-10-20T10:53:48.513Z,1006.48
2022-10-20T10:54:48.546Z,1006.44
2022-10-20T10:55:49.409Z,1006.38
2022-10-20T10:56:48.613Z,1006.39
2022-10-20T10:57:48.648Z,1006.39
2022-10-20T10:58:48.687Z,1006.38
2022-10-20T10:59:48.747Z,1006.33
2022-10-20T11:00:48.800Z,1006.29
2022-10-20T11:01:49.340Z,1006.29
2022-10-20T11:02:48.815Z,1006.29
2022-10-20T11:03:48.851Z,1006.26
2022-10-20T11:04:48.882Z,1006.30
2022-10-20T11:05:48.916Z,1006.28
2022-10-20T11:06:48.949Z,1006.27
2022-10-20T11:07:48.989Z,1006.31
2022-10-20T11:08:49.075Z,1006.26
2022-10-20T11:09:49.049Z,1006.30
2022-10-20T11:10:49.084Z,1006.31
2022-10-20T11:11:49.118Z,1006.30
2022-10-20T11:12:49.152Z,1006.32
2022-10-20T11:13:49.184Z,1006.32
2022-10-20T11:14:49.218Z,1006.38
2022-10-20T11:15:49.277Z,1006.37
2022-10-20T11:16:49.291Z,1006.34
2022-10-20T11:17:49.318Z,1006.32
2022-10-20T11:18:49.352Z,1006.31
2022-10-20T11:19:49.387Z,1006.26
2022-10-20T11:20:49.420Z,1006.29
2022-10-20T11:21:49.452Z,1006.31
2022-10-20T11:22:49.486Z,1006.34
2022-10-20T11:23:49.521Z,1006.35
2022-10-20T11:24:49.556Z,1006.30
2022-10-20T11:25:49.588Z,1006.31
2022-10-20T11:26:49.621Z,1006.35
2022-10-20T11:27:49.654Z,1006.33
2022-10-20T11:28:49.696Z,1006.37
2022-10-20T11:29:49.721Z,1006.34
2022-10-20T11:30:49.755Z,1006.34
2022-10-20T11:31:49.812Z,1006.32
2022-10-20T11:32:49.822Z,1006.28
2022-10-20T11:33:49.855Z,1006.24
2022-10-20T11:34:49.889Z,1006.27
2022-10-20T11:35:49.924Z,1006.21
2022-10-20T11:36:49.957Z,1006.20
2022-10-20T11:37:49.989Z,1006.19
2022-10-20T11:38:50.022Z,1006.16
2022-10-20T11:39:50.058Z,1006.15
2022-10-20T11:40:50.091Z,1006.17
2022-10-20T11:41:50.127Z,1006.17
2022-10-20T11:42:50.163Z,1006.18
2022-10-20T11:43:50.192Z,1006.13
2022-10-20T11:44:50.225Z,1006.11
2022-10-20T11:45:50.258Z,1006.13
2022-10-20T11:46:50.294Z,1006.07
2022-10-20T11:47:50.356Z,1006.05
2022-10-20T11:48:50.358Z,1006.10
2022-10-20T11:49:50.393Z,1006.08
2022-10-20T11:50:50.430Z,1006.14
2022-10-20T11:51:50.459Z,1006.13
2022-10-20T11:52:50.492Z,1006.21
2022-10-20T11:53:50.526Z,1006.19
2022-10-20T11:54:50.559Z,1006.20
2022-10-20T11:55:50.593Z,1006.22
2022-10-20T11:56:50.628Z,1006.23
2022-10-20T11:57:50.659Z,1006.21
2022-10-20T11:58:50.694Z,1006.20
2022-10-20T11:59:50.727Z,1006.18
2022-10-20T12:00:50.761Z,1006.17
2022-10-20T12:01:50.830Z,1006.23
2022-10-20T12:02:50.827Z,1006.25
2022-10-20T12:03:50.887Z,1006.25
2022-10-20T12:04:50.897Z,1006.23
2022-10-20T12:05:50.928Z,1006.23
2022-10-20T12:06:50.963Z,1006.19
2022-10-20T12:07:54.165Z,1006.25
2022-10-20T12:08:51.089Z,1006.22